Flight Track Log - Related Links

Times and Time Zones

All times are in EDT time to prevent confusion due to time zone crossing. See the EJA929 flight status page for this flight to view local times or setup timezone preferences in your user account.

Time Position Orientation Groundspeed Altitude Reporting Facility
EDT Latitude Longitude Course Direction KTS MPH feet Rate Location/Type
Fri 06:55:57 PM 36.7922 -119.7494 13° North 183 211 1,700  Level Oakland Center
Fri 06:56:59 PM 36.8414 -119.7353 13° North 227 261 5,000 3,268 Climbing Oakland Center
Fri 06:58:00 PM 36.8850 -119.6619 53° Northeast 268 308 8,400 3,610 Climbing Oakland Center
Fri 06:59:02 PM 36.9372 -119.5767 53° Northeast 305 351 12,400 4,000 Climbing Oakland Center
Fri 07:00:03 PM 36.9900 -119.4894 53° Northeast 313 360 16,600 3,561 Climbing Oakland Center
Fri 07:01:05 PM 37.0411 -119.3978 55° Northeast 321 369 19,700 2,878 Climbing Oakland Center
Fri 07:02:06 PM 37.0917 -119.2758 63° Northeast 330 380 22,500 1,672 Climbing Oakland Center
Fri 07:03:07 PM 37.1239 -119.1578 71° East 381 438 23,100 1,171 Climbing Oakland Center
Fri 07:04:09 PM 37.1106 -119.0244 97° East 394 453 24,900 2,098 Climbing Oakland Center
Fri 07:05:10 PM 37.0919 -118.8894 100° East 394 453 27,400 2,016 Climbing Oakland Center
Fri 07:06:11 PM 37.0739 -118.7575 100° East 384 442 29,000 983 Climbing Oakland Center
Fri 07:07:06 PM 37.0997 -118.6122 77° East 442 509 29,300 872 Climbing Los Angeles Center
Fri 07:08:08 PM 37.1903 -118.4944 46° Northeast 473 544 30,700 1,355 Climbing Los Angeles Center
Fri 07:09:10 PM 37.3025 -118.4008 34° Northeast 481 554 32,100 1,442 Climbing Los Angeles Center
Fri 07:10:17 PM 37.4322 -118.2794 37° Northeast 487 560 33,800 1,453 Climbing Oakland Center
Fri 07:11:18 PM 37.5128 -118.1397 54° Northeast 495 570 35,200 1,366 Climbing Oakland Center
Fri 07:12:20 PM 37.5833 -117.9914 59° Northeast 496 571 36,600 878 Climbing Oakland Center
Fri 07:13:21 PM 37.6539 -117.8422 59° Northeast 495 570 37,000 197 Climbing Oakland Center
Fri 07:14:22 PM 37.7275 -117.6861 59° Northeast 515 593 37,000  Level Oakland Center
Fri 07:15:24 PM 37.8014 -117.5289 59° Northeast 520 598 37,000 634 Level Oakland Center
Fri 07:16:25 PM 37.8725 -117.3744 60° Northeast 516 594 38,300 1,300 Climbing Oakland Center
Fri 07:17:24 PM 37.9414 -117.2247 60° Northeast 504 580 39,600 1,200 Climbing Salt Lake Center
Fri 07:18:25 PM 38.0081 -117.0772 60° Northeast 495 570 40,700 683 Climbing Salt Lake Center
Fri 07:19:27 PM 38.0739 -116.8883 66° East 497 572 41,000 145 Climbing Salt Lake Center
Fri 07:20:29 PM 38.1244 -116.7244 69° East 502 578 41,000  Level Salt Lake Center
Fri 07:21:32 PM 38.1736 -116.5589 69° East 502 578 41,000  Level Oakland Center
Fri 07:22:33 PM 38.2239 -116.3950 69° East 501 577 41,000  Level Salt Lake Center
Fri 07:23:35 PM 38.2719 -116.2319 69° East 496 571 41,000  Level Salt Lake Center
Fri 07:24:36 PM 38.3208 -116.0675 69° East 496 571 41,000  Level Salt Lake Center
Fri 07:25:38 PM 38.3792 -115.8667 70° East 502 578 41,000  Level Salt Lake Center
Fri 07:26:40 PM 38.4283 -115.6981 70° East 506 582 41,000  Level Salt Lake Center
Fri 07:27:42 PM 38.4772 -115.5297 70° East 507 583 41,000  Level Salt Lake Center
Fri 07:28:44 PM 38.5261 -115.3608 70° East 508 585 41,000  Level Salt Lake Center
Fri 07:29:45 PM 38.5728 -115.1964 70° East 509 586 41,000  Level Salt Lake Center
Fri 07:30:47 PM 38.6211 -115.0261 70° East 510 587 41,000  Level Salt Lake Center
Fri 07:31:49 PM 38.6789 -114.8208 70° East 509 586 41,000  Level Salt Lake Center
Fri 07:32:51 PM 38.7269 -114.6503 70° East 510 587 41,000  Level Salt Lake Center
Fri 07:33:53 PM 38.7750 -114.4792 70° East 511 588 41,000  Level Salt Lake Center
Fri 07:34:55 PM 38.8225 -114.3075 70° East 510 587 41,000  Level Salt Lake Center
Fri 07:35:56 PM 38.8703 -114.1347 70° East 512 589 41,000  Level Salt Lake Center
Fri 07:36:58 PM 38.9169 -113.9631 71° East 511 588 41,000  Level Salt Lake Center
Fri 07:38:00 PM 38.9636 -113.7906 71° East 510 587 41,000  Level Salt Lake Center
Fri 07:39:02 PM 39.0192 -113.5847 71° East 509 586 41,000  Level Salt Lake Center
Fri 07:40:04 PM 39.0653 -113.4128 71° East 508 585 41,000  Level Salt Lake Center
Fri 07:41:06 PM 39.1103 -113.2417 71° East 505 581 41,000 726 Level Salt Lake Center
Fri 07:42:08 PM 39.1553 -113.0711 71° East 504 580 42,500 976 Climbing Salt Lake Center
Fri 07:43:09 PM 39.1981 -112.9067 71° East 492 566 43,000 585 Climbing Salt Lake Center
Fri 07:44:11 PM 39.2433 -112.7403 71° East 491 565 43,700 774 Climbing Salt Lake Center
Fri 07:45:13 PM 39.2875 -112.5744 71° East 490 564 44,600 629 Climbing Salt Lake Center
Fri 07:46:15 PM 39.3472 -112.3814 68° East 489 563 45,000 194 Climbing Salt Lake Center
Fri 07:47:17 PM 39.4053 -112.2258 64° Northeast 488 562 45,000  Level Salt Lake Center
Fri 07:48:18 PM 39.4636 -112.0675 64° Northeast 489 563 45,000  Level Salt Lake Center
Fri 07:49:20 PM 39.5208 -111.9089 65° Northeast 488 562 45,000  Level Salt Lake Center
Fri 07:50:22 PM 39.5783 -111.7492 65° Northeast 491 565 45,000  Level Salt Lake Center
Fri 07:51:24 PM 39.6356 -111.5883 65° Northeast 493 567 45,000  Level Salt Lake Center
Fri 07:52:26 PM 39.7053 -111.3950 65° Northeast 495 570 45,000  Level Salt Lake Center
Fri 07:53:27 PM 39.7597 -111.2422 65° Northeast 492 566 45,000  Level Salt Lake Center
Fri 07:54:29 PM 39.8161 -111.0875 65° Northeast 493 567 45,000  Level Salt Lake Center
Fri 07:55:31 PM 39.8792 -110.9064 66° East 491 565 45,000  Level Salt Lake Center
Fri 07:56:33 PM 39.9347 -110.7494 65° Northeast 496 571 45,000  Level Salt Lake Center
Fri 07:57:35 PM 39.9983 -110.5664 66° East 495 570 45,000  Level Salt Lake Center
Fri 07:58:36 PM 40.0525 -110.4103 66° East 494 568 45,000  Level Salt Lake Center
Fri 07:59:38 PM 40.1150 -110.2267 66° East 494 568 45,000  Level Salt Lake Center
Fri 08:00:40 PM 40.1589 -110.0636 71° East 496 571 45,000  Level Salt Lake Center
Fri 08:01:42 PM 40.1831 -109.8925 79° East 499 574 45,000 -145 Level Salt Lake Center
Fri 08:02:44 PM 40.2108 -109.6931 80° East 498 573 44,700 -829 Descending Salt Lake Center
Fri 08:03:45 PM 40.2347 -109.5183 80° East 506 582 43,300 -2,585 Descending Salt Lake Center
Fri 08:04:47 PM 40.2639 -109.3092 80° East 518 596 39,400 -3,629 Descending Salt Lake Center
Fri 08:05:49 PM 40.2881 -109.1361 80° East 507 583 35,800 -3,774 Descending Salt Lake Center
Fri 08:06:51 PM 40.3156 -108.9286 80° East 514 592 31,600 -3,372 Descending Salt Lake Center
Fri 08:07:50 PM 40.3381 -108.7572 80° East 496 571 29,000 -2,244 Descending Denver Center
Fri 08:08:54 PM 40.3606 -108.5844 80° East 474 545 27,000 -1,597 Descending Salt Lake Center
Fri 08:09:54 PM 40.3839 -108.4072 80° East 471 542 25,700 -1,721 Descending Denver Center
Fri 08:10:56 PM 40.4044 -108.2422 81° East 476 548 23,500 -2,382 Descending Denver Center
Fri 08:12:10 PM 40.4311 -108.0289 81° East 464 534 20,300 -2,868 Descending Denver Center
Fri 08:13:12 PM 40.4497 -107.8775 81° East 444 511 17,000 -3,484 Descending Denver Center
Fri 08:14:14 PM 40.4694 -107.7200 81° East 398 458 13,100 -3,000 Descending Denver Center
Fri 08:15:16 PM 40.4858 -107.5906 81° East 379 436 10,800 -1,306 Descending Denver Center
Fri 08:16:18 PM 40.4992 -107.4836 81° East 307 353 10,400 -968 Descending Denver Center
Fri 08:17:20 PM 40.5144 -107.3858 78° East 281 323 8,800 -1,548 Descending Denver Center

Login

Don't have an account? Register now (free) for customized features, flight alerts, and more!